createdAt,value
2022-12-23T00:01:22.390Z,11.40
2022-12-23T00:03:49.399Z,11.30
2022-12-23T00:06:17.229Z,11.30
2022-12-23T00:08:44.266Z,11.30
2022-12-23T00:11:13.789Z,11.50
2022-12-23T00:13:59.247Z,11.20
2022-12-23T00:16:26.281Z,11.20
2022-12-23T00:18:53.697Z,11.20
2022-12-23T00:21:20.796Z,11.10
2022-12-23T00:23:49.132Z,11.10
2022-12-23T00:26:21.515Z,11.00
2022-12-23T00:28:48.755Z,11.00
2022-12-23T00:31:18.316Z,11.00
2022-12-23T00:33:46.686Z,11.00
2022-12-23T00:36:28.015Z,11.00
2022-12-23T00:39:14.616Z,11.00
2022-12-23T00:41:59.972Z,11.00
2022-12-23T00:44:26.957Z,11.00
2022-12-23T00:46:53.944Z,11.00
2022-12-23T00:49:39.650Z,11.00
2022-12-23T00:52:07.753Z,11.00
2022-12-23T00:54:34.772Z,10.90
2022-12-23T00:57:01.868Z,11.00
2022-12-23T00:59:28.962Z,11.00
2022-12-23T01:02:14.461Z,11.00
2022-12-23T01:05:00.214Z,11.00
2022-12-23T01:07:27.167Z,11.10
2022-12-23T01:09:54.094Z,10.80
2022-12-23T01:12:21.195Z,10.80
2022-12-23T01:14:48.169Z,10.80
2022-12-23T01:17:15.170Z,10.80
2022-12-23T01:19:42.263Z,10.60
2022-12-23T01:22:09.238Z,10.60
2022-12-23T01:24:36.197Z,10.80
2022-12-23T01:27:03.338Z,10.80
2022-12-23T01:29:30.335Z,10.70
2022-12-23T01:31:57.520Z,10.70
2022-12-23T01:34:24.604Z,10.90
2022-12-23T01:36:51.627Z,10.50
2022-12-23T01:39:18.645Z,10.60
2022-12-23T01:42:03.944Z,10.60
2022-12-23T01:44:50.071Z,10.80
2022-12-23T01:47:29.696Z,10.60
2022-12-23T01:50:00.607Z,10.60
2022-12-23T01:52:27.512Z,10.60
2022-12-23T01:54:55.250Z,10.60
2022-12-23T01:57:22.258Z,10.60
2022-12-23T02:00:07.595Z,10.60
2022-12-23T02:03:01.422Z,10.60
2022-12-23T02:05:28.433Z,10.70
2022-12-23T02:08:13.775Z,10.50
2022-12-23T02:11:04.786Z,10.50
2022-12-23T02:14:05.308Z,10.70
2022-12-23T02:16:33.252Z,10.50
2022-12-23T02:19:03.141Z,10.60
2022-12-23T02:21:52.648Z,10.50
2022-12-23T02:24:44.185Z,10.50
2022-12-23T02:27:32.336Z,10.40
2022-12-23T02:30:28.464Z,10.50
2022-12-23T02:33:16.160Z,10.40
2022-12-23T02:36:01.069Z,10.40
2022-12-23T02:39:06.310Z,10.40
2022-12-23T02:41:39.385Z,10.40
2022-12-23T02:44:21.269Z,10.50
2022-12-23T02:46:50.479Z,10.50
2022-12-23T02:49:24.032Z,10.40
2022-12-23T02:51:53.207Z,10.50
2022-12-23T02:54:25.205Z,10.50
2022-12-23T02:56:52.169Z,10.80
2022-12-23T02:59:22.003Z,10.70
2022-12-23T03:01:49.210Z,10.70
2022-12-23T03:04:16.276Z,10.50
2022-12-23T03:06:48.683Z,10.50
2022-12-23T03:09:23.352Z,10.40
2022-12-23T03:12:14.735Z,10.40
2022-12-23T03:15:04.266Z,10.30
2022-12-23T03:17:44.024Z,10.30
2022-12-23T03:20:35.323Z,10.30
2022-12-23T03:23:22.302Z,10.20
2022-12-23T03:25:49.381Z,10.40
2022-12-23T03:28:17.991Z,10.20
2022-12-23T03:30:46.704Z,10.30
2022-12-23T03:33:36.577Z,10.20
2022-12-23T03:36:08.749Z,10.10
2022-12-23T03:38:36.061Z,10.20
2022-12-23T03:41:06.707Z,10.30
2022-12-23T03:43:44.818Z,10.10
2022-12-23T03:46:20.792Z,10.20
2022-12-23T03:49:05.414Z,10.10
2022-12-23T03:51:37.162Z,10.00
2022-12-23T03:54:08.725Z,10.20
2022-12-23T03:56:37.505Z,10.20
2022-12-23T03:59:25.988Z,10.20
2022-12-23T04:02:09.491Z,10.30
2022-12-23T04:04:39.663Z,10.10
2022-12-23T04:07:22.143Z,10.10
2022-12-23T04:09:49.758Z,10.00
2022-12-23T04:12:16.669Z,10.30
2022-12-23T04:14:47.892Z,10.20
2022-12-23T04:17:15.404Z,10.20
2022-12-23T04:19:45.916Z,10.50
2022-12-23T04:22:13.627Z,10.30
2022-12-23T04:24:40.545Z,10.30
2022-12-23T04:27:07.930Z,10.20
2022-12-23T04:29:34.925Z,10.10
2022-12-23T04:32:01.945Z,10.20
2022-12-23T04:34:28.974Z,10.30
2022-12-23T04:36:56.165Z,10.30
2022-12-23T04:39:23.698Z,10.30
2022-12-23T04:41:50.667Z,10.30
2022-12-23T04:44:17.679Z,10.20
2022-12-23T04:46:44.687Z,10.30
2022-12-23T04:49:11.678Z,10.30
2022-12-23T04:51:38.622Z,10.40
2022-12-23T04:54:06.052Z,10.20
2022-12-23T04:56:32.967Z,10.20
2022-12-23T04:59:02.390Z,10.20
2022-12-23T05:01:29.773Z,10.30
2022-12-23T05:03:57.409Z,10.30
2022-12-23T05:06:24.391Z,10.40
2022-12-23T05:08:51.288Z,10.20
2022-12-23T05:11:18.255Z,10.40
2022-12-23T05:13:45.205Z,10.40
2022-12-23T05:16:12.346Z,10.50
2022-12-23T05:18:39.294Z,10.60
2022-12-23T05:21:06.193Z,10.60
2022-12-23T05:23:33.173Z,10.60
2022-12-23T05:26:00.130Z,10.40
2022-12-23T05:28:27.082Z,10.40
2022-12-23T05:31:07.293Z,10.60
2022-12-23T05:33:34.729Z,10.40
2022-12-23T05:36:01.921Z,10.40
2022-12-23T05:38:28.817Z,10.40
2022-12-23T05:40:55.722Z,10.50
2022-12-23T05:43:22.680Z,10.40
2022-12-23T05:45:50.090Z,10.40
2022-12-23T05:48:17.175Z,10.10
2022-12-23T05:50:44.245Z,10.20
2022-12-23T05:53:11.182Z,10.30
2022-12-23T05:55:38.139Z,10.20
2022-12-23T05:58:05.859Z,10.20
2022-12-23T06:00:32.909Z,10.10
2022-12-23T06:03:00.112Z,10.00
2022-12-23T06:05:27.358Z,10.10
2022-12-23T06:07:54.272Z,10.20
2022-12-23T06:10:21.253Z,9.90
2022-12-23T06:12:48.301Z,10.10
2022-12-23T06:15:15.788Z,10.00
2022-12-23T06:17:42.778Z,9.90
2022-12-23T06:20:17.908Z,9.70
2022-12-23T06:22:47.062Z,9.80
2022-12-23T06:25:14.078Z,9.80
2022-12-23T06:27:41.035Z,9.90
2022-12-23T06:30:09.601Z,9.80
2022-12-23T06:32:38.879Z,9.80
2022-12-23T06:35:07.618Z,9.80
2022-12-23T06:37:34.694Z,9.60
2022-12-23T06:40:01.797Z,9.60
2022-12-23T06:42:29.026Z,9.70
2022-12-23T06:44:55.989Z,9.80
2022-12-23T06:47:22.984Z,9.40
2022-12-23T06:49:49.979Z,9.50
2022-12-23T06:52:17.107Z,9.50
2022-12-23T06:54:44.022Z,9.50
2022-12-23T06:57:10.983Z,9.40
2022-12-23T06:59:37.971Z,9.40
2022-12-23T07:02:05.192Z,9.40
2022-12-23T07:04:32.324Z,9.30
2022-12-23T07:06:59.373Z,9.40
2022-12-23T07:09:26.530Z,9.40
2022-12-23T07:11:53.698Z,9.30
2022-12-23T07:14:20.971Z,9.20
2022-12-23T07:16:48.326Z,9.20
2022-12-23T07:19:15.433Z,9.10
2022-12-23T07:22:15.980Z,9.20
2022-12-23T07:24:43.037Z,9.00
2022-12-23T07:27:09.997Z,9.00
2022-12-23T07:29:43.207Z,9.10
2022-12-23T07:32:10.301Z,9.10
2022-12-23T07:34:37.302Z,9.10
2022-12-23T07:37:04.375Z,9.10
2022-12-23T07:39:31.344Z,9.10
2022-12-23T07:42:24.979Z,9.10
2022-12-23T07:44:45.379Z,9.00
2022-12-23T07:47:12.351Z,9.10
2022-12-23T07:49:39.671Z,9.00
2022-12-23T07:52:06.708Z,9.00
2022-12-23T07:54:33.711Z,9.00
2022-12-23T07:57:00.715Z,9.20
2022-12-23T07:59:27.660Z,9.20
2022-12-23T08:01:54.758Z,9.10
2022-12-23T08:04:21.915Z,9.00
2022-12-23T08:06:48.859Z,9.10
2022-12-23T08:09:15.755Z,9.20
2022-12-23T08:11:42.730Z,9.10
2022-12-23T08:14:09.873Z,9.10
2022-12-23T08:16:43.340Z,9.20
2022-12-23T08:19:11.018Z,9.10
2022-12-23T08:21:38.019Z,9.20
2022-12-23T08:24:05.128Z,9.10
2022-12-23T08:26:32.606Z,9.00
2022-12-23T08:29:00.336Z,9.20
2022-12-23T08:31:30.191Z,9.00
2022-12-23T08:33:57.851Z,9.10
2022-12-23T08:36:27.202Z,9.10
2022-12-23T08:38:54.857Z,9.00
2022-12-23T08:41:26.901Z,9.10
2022-12-23T08:43:54.062Z,9.30
2022-12-23T08:46:21.188Z,9.10
2022-12-23T08:48:49.645Z,9.00
2022-12-23T08:51:17.978Z,9.10
2022-12-23T08:53:45.064Z,9.20
2022-12-23T08:56:14.751Z,9.10
2022-12-23T08:58:43.318Z,9.00
2022-12-23T09:01:11.420Z,9.20
2022-12-23T09:03:38.748Z,9.20
2022-12-23T09:06:11.620Z,9.30
2022-12-23T09:08:38.786Z,9.20
2022-12-23T09:11:11.696Z,9.10
2022-12-23T09:13:39.136Z,9.20
2022-12-23T09:16:06.806Z,9.20
2022-12-23T09:18:34.353Z,9.40
2022-12-23T09:21:02.890Z,9.10
2022-12-23T09:23:29.998Z,9.20
2022-12-23T09:25:57.295Z,9.20
2022-12-23T09:28:27.537Z,9.30
2022-12-23T09:30:57.363Z,9.50
2022-12-23T09:33:24.369Z,9.40
2022-12-23T09:35:51.368Z,9.50
2022-12-23T09:38:18.349Z,9.50
2022-12-23T09:40:45.849Z,9.40
2022-12-23T09:43:18.660Z,9.50
2022-12-23T09:45:48.700Z,9.80
2022-12-23T09:48:18.795Z,9.60
2022-12-23T09:50:46.924Z,9.60
2022-12-23T09:53:25.358Z,9.60
2022-12-23T09:56:27.696Z,9.70
2022-12-23T09:59:02.708Z,9.70
2022-12-23T10:01:45.538Z,9.60
2022-12-23T10:04:15.697Z,9.80
2022-12-23T10:06:42.712Z,9.70
2022-12-23T10:09:09.959Z,9.90
2022-12-23T10:11:40.031Z,9.70
2022-12-23T10:14:18.793Z,9.80
2022-12-23T10:16:47.458Z,10.00
2022-12-23T10:19:41.758Z,9.80
2022-12-23T10:22:32.854Z,10.00
2022-12-23T10:25:00.006Z,9.90
2022-12-23T10:27:38.790Z,10.00
2022-12-23T10:30:53.529Z,10.10
2022-12-23T10:33:16.415Z,10.00
2022-12-23T10:35:52.326Z,9.90
2022-12-23T10:38:28.874Z,10.10
2022-12-23T10:41:09.492Z,10.10
2022-12-23T10:44:10.314Z,10.20
2022-12-23T10:46:56.275Z,10.50
2022-12-23T10:49:42.529Z,10.30
2022-12-23T10:52:18.481Z,10.50
2022-12-23T10:54:45.879Z,10.20
2022-12-23T10:57:13.637Z,10.50
2022-12-23T10:59:40.650Z,10.40
2022-12-23T11:02:15.804Z,10.70
2022-12-23T11:04:47.381Z,10.60
2022-12-23T11:07:44.027Z,10.50
2022-12-23T11:10:19.567Z,10.70
2022-12-23T11:12:51.430Z,10.70
2022-12-23T11:15:29.032Z,10.60
2022-12-23T11:18:14.183Z,10.90
2022-12-23T11:20:42.604Z,10.30
2022-12-23T11:23:26.570Z,10.70
2022-12-23T11:26:01.404Z,10.70
2022-12-23T11:28:28.568Z,10.70
2022-12-23T11:31:14.596Z,10.70
2022-12-23T11:33:49.574Z,10.80
2022-12-23T11:36:16.551Z,10.80
2022-12-23T11:39:14.505Z,10.80
2022-12-23T11:41:44.935Z,11.00
2022-12-23T11:44:32.404Z,11.10
2022-12-23T11:47:17.317Z,11.10
2022-12-23T11:49:51.320Z,11.20
2022-12-23T11:52:20.291Z,11.20
2022-12-23T11:54:54.555Z,11.30
2022-12-23T11:57:26.668Z,11.40
2022-12-23T11:59:57.536Z,11.40
2022-12-23T12:02:40.177Z,11.50
2022-12-23T12:05:27.714Z,11.60
2022-12-23T12:07:56.954Z,11.70
2022-12-23T12:10:29.209Z,11.80
2022-12-23T12:12:57.519Z,12.00
2022-12-23T12:15:31.020Z,12.20
2022-12-23T12:17:58.011Z,12.40
2022-12-23T12:20:29.306Z,12.60
2022-12-23T12:23:09.511Z,12.80
2022-12-23T12:25:49.961Z,12.90
2022-12-23T12:28:25.113Z,13.00
2022-12-23T12:31:06.441Z,13.00
2022-12-23T12:34:05.147Z,13.00
2022-12-23T12:36:44.576Z,13.10
2022-12-23T12:39:18.322Z,13.20
2022-12-23T12:41:50.731Z,13.20
2022-12-23T12:44:30.043Z,13.20
2022-12-23T12:47:52.026Z,13.20
2022-12-23T12:50:18.745Z,13.30
2022-12-23T12:52:45.979Z,13.40
2022-12-23T12:55:28.836Z,13.40
2022-12-23T12:57:55.837Z,13.50
2022-12-23T13:00:23.768Z,13.50
2022-12-23T13:03:32.959Z,13.60
2022-12-23T13:06:40.144Z,13.50
2022-12-23T13:09:25.848Z,13.50
2022-12-23T13:12:11.566Z,13.50
2022-12-23T13:15:00.066Z,13.40
2022-12-23T13:17:33.702Z,13.40
2022-12-23T13:20:23.276Z,13.50
2022-12-23T13:22:51.184Z,13.60
2022-12-23T13:25:27.145Z,13.60
2022-12-23T13:28:17.398Z,13.70
2022-12-23T13:30:48.525Z,13.70
2022-12-23T13:33:33.767Z,13.80
2022-12-23T13:36:06.452Z,13.70
2022-12-23T13:39:23.312Z,13.70
2022-12-23T13:41:51.819Z,13.70
2022-12-23T13:44:19.878Z,13.70
2022-12-23T13:47:03.249Z,13.70
2022-12-23T13:49:51.707Z,13.70
2022-12-23T13:52:34.553Z,13.60
2022-12-23T13:55:35.469Z,13.60
2022-12-23T13:58:05.353Z,13.60
2022-12-23T14:00:33.496Z,13.70
2022-12-23T14:03:00.886Z,13.70
2022-12-23T14:05:50.899Z,13.70
2022-12-23T14:08:23.681Z,13.80
2022-12-23T14:10:55.079Z,13.80
2022-12-23T14:13:30.650Z,13.80
2022-12-23T14:16:03.644Z,13.80
2022-12-23T14:19:12.661Z,13.80
2022-12-23T14:21:58.007Z,13.80
2022-12-23T14:24:46.445Z,13.80
2022-12-23T14:27:32.137Z,13.70
2022-12-23T14:30:17.696Z,13.70
2022-12-23T14:32:49.325Z,13.50
2022-12-23T14:35:28.269Z,13.30
2022-12-23T14:38:14.352Z,13.20
2022-12-23T14:41:03.209Z,13.00
2022-12-23T14:43:46.068Z,12.90
2022-12-23T14:46:35.165Z,12.90
2022-12-23T14:49:37.144Z,12.90
2022-12-23T14:51:51.135Z,12.90
2022-12-23T14:54:20.596Z,12.90
2022-12-23T14:56:47.663Z,12.80
2022-12-23T14:59:24.590Z,12.80
2022-12-23T15:01:59.426Z,12.70
2022-12-23T15:04:27.870Z,12.70
2022-12-23T15:06:56.554Z,12.70
2022-12-23T15:09:31.167Z,12.70
2022-12-23T15:12:00.021Z,12.60
2022-12-23T15:14:37.907Z,12.40
2022-12-23T15:17:34.127Z,12.30
2022-12-23T15:20:10.344Z,12.30
2022-12-23T15:22:40.457Z,12.40
2022-12-23T15:25:35.233Z,12.30
2022-12-23T15:28:02.981Z,12.30
2022-12-23T15:30:35.191Z,12.30
2022-12-23T15:33:03.927Z,12.20
2022-12-23T15:35:32.335Z,12.20
2022-12-23T15:38:00.218Z,12.10
2022-12-23T15:40:28.378Z,12.10
2022-12-23T15:42:55.456Z,12.10
2022-12-23T15:45:34.686Z,12.10
2022-12-23T15:48:02.978Z,12.00
2022-12-23T15:50:29.976Z,12.10
2022-12-23T15:52:57.800Z,12.00
2022-12-23T15:55:28.201Z,12.00
2022-12-23T15:57:55.121Z,11.90
2022-12-23T16:00:49.911Z,11.90
2022-12-23T16:03:56.327Z,11.80
2022-12-23T16:06:24.467Z,11.80
2022-12-23T16:09:09.428Z,11.80
2022-12-23T16:11:56.488Z,11.80
2022-12-23T16:14:37.721Z,11.70
2022-12-23T16:17:07.860Z,11.70
2022-12-23T16:19:51.973Z,11.60
2022-12-23T16:22:35.677Z,11.60
2022-12-23T16:25:14.533Z,11.50
2022-12-23T16:27:43.918Z,11.50
2022-12-23T16:30:19.316Z,11.40
2022-12-23T16:32:52.945Z,11.50
2022-12-23T16:35:28.322Z,11.50
2022-12-23T16:38:13.231Z,11.50
2022-12-23T16:40:40.220Z,11.50
2022-12-23T16:43:07.266Z,11.60
2022-12-23T16:45:35.316Z,11.60
2022-12-23T16:48:03.076Z,11.60
2022-12-23T16:50:30.019Z,11.60
2022-12-23T16:52:57.148Z,11.60
2022-12-23T16:55:24.378Z,11.60
2022-12-23T16:57:51.300Z,11.60
2022-12-23T17:00:19.577Z,11.70
2022-12-23T17:02:47.169Z,11.70
2022-12-23T17:05:18.560Z,11.70
2022-12-23T17:07:45.866Z,11.70
2022-12-23T17:10:13.730Z,11.70
2022-12-23T17:12:40.897Z,11.70
2022-12-23T17:15:08.425Z,11.70
2022-12-23T17:17:35.448Z,11.80
2022-12-23T17:20:02.412Z,11.80
2022-12-23T17:22:40.015Z,11.80
2022-12-23T17:25:07.208Z,11.80
2022-12-23T17:27:34.161Z,11.80
2022-12-23T17:30:01.386Z,11.70
2022-12-23T17:32:28.719Z,11.70
2022-12-23T17:34:55.845Z,11.70
2022-12-23T17:37:23.031Z,11.70
2022-12-23T17:39:50.030Z,11.70
2022-12-23T17:42:25.598Z,11.60
2022-12-23T17:44:52.906Z,11.60
2022-12-23T17:47:22.227Z,11.60
2022-12-23T17:49:49.638Z,11.60
2022-12-23T17:52:20.837Z,11.60
2022-12-23T17:54:50.240Z,11.50
2022-12-23T17:57:19.781Z,11.40
2022-12-23T17:59:47.978Z,11.40
2022-12-23T18:02:22.838Z,11.40
2022-12-23T18:04:50.925Z,11.40
2022-12-23T18:07:18.349Z,11.30
2022-12-23T18:09:45.818Z,11.30
2022-12-23T18:12:35.075Z,11.30
2022-12-23T18:15:02.481Z,11.30
2022-12-23T18:17:29.443Z,11.30
2022-12-23T18:19:56.701Z,11.50
2022-12-23T18:22:24.341Z,11.60
2022-12-23T18:24:56.958Z,11.30
2022-12-23T18:27:25.737Z,11.30
2022-12-23T18:29:52.781Z,11.30
2022-12-23T18:32:21.752Z,11.30
2022-12-23T18:34:49.381Z,11.30
2022-12-23T18:37:16.984Z,11.20
2022-12-23T18:39:44.428Z,11.40
2022-12-23T18:42:18.928Z,11.30
2022-12-23T18:44:48.174Z,11.30
2022-12-23T18:47:15.100Z,11.30
2022-12-23T18:49:42.237Z,11.30
2022-12-23T18:52:12.668Z,11.20
2022-12-23T18:54:40.061Z,11.10
2022-12-23T18:57:07.344Z,11.20
2022-12-23T18:59:37.639Z,11.20
2022-12-23T19:02:05.077Z,11.10
2022-12-23T19:04:32.189Z,11.10
2022-12-23T19:06:59.311Z,11.10
2022-12-23T19:09:26.513Z,11.30
2022-12-23T19:11:53.930Z,11.20
2022-12-23T19:14:20.938Z,11.40
2022-12-23T19:16:52.031Z,11.20
2022-12-23T19:19:20.237Z,11.20
2022-12-23T19:21:47.193Z,11.00
2022-12-23T19:24:14.101Z,11.00
2022-12-23T19:26:41.111Z,11.00
2022-12-23T19:29:08.871Z,11.00
2022-12-23T19:31:35.934Z,11.00
2022-12-23T19:34:03.013Z,10.90
2022-12-23T19:36:30.224Z,11.00
2022-12-23T19:38:57.692Z,10.90
2022-12-23T19:41:25.029Z,10.80
2022-12-23T19:43:51.983Z,10.90
2022-12-23T19:46:19.241Z,10.90
2022-12-23T19:48:51.607Z,10.90
2022-12-23T19:51:18.901Z,10.80
2022-12-23T19:53:46.198Z,10.80
2022-12-23T19:56:15.246Z,11.00
2022-12-23T19:58:42.947Z,10.80
2022-12-23T20:01:24.047Z,10.80
2022-12-23T20:03:52.286Z,10.80
2022-12-23T20:06:27.695Z,10.80
2022-12-23T20:09:00.021Z,10.80
2022-12-23T20:11:30.606Z,10.70
2022-12-23T20:13:58.511Z,10.90
2022-12-23T20:16:25.820Z,10.80
2022-12-23T20:18:52.908Z,10.80
2022-12-23T20:21:19.822Z,10.80
2022-12-23T20:23:46.733Z,10.80
2022-12-23T20:26:13.948Z,10.80
2022-12-23T20:28:41.435Z,11.10
2022-12-23T20:31:16.144Z,10.80
2022-12-23T20:33:43.372Z,10.90
2022-12-23T20:36:10.982Z,10.80
2022-12-23T20:38:39.028Z,10.80
2022-12-23T20:41:07.310Z,10.80
2022-12-23T20:43:34.744Z,10.70
2022-12-23T20:46:05.704Z,10.80
2022-12-23T20:48:34.183Z,10.80
2022-12-23T20:51:18.465Z,10.70
2022-12-23T20:53:45.766Z,10.60
2022-12-23T20:56:14.280Z,10.70
2022-12-23T20:58:57.834Z,10.60
2022-12-23T21:01:36.183Z,10.40
2022-12-23T21:04:15.918Z,10.60
2022-12-23T21:06:43.299Z,10.50
2022-12-23T21:09:11.728Z,10.40
2022-12-23T21:11:40.855Z,10.40
2022-12-23T21:14:08.049Z,10.50
2022-12-23T21:16:36.202Z,10.30
2022-12-23T21:19:03.239Z,10.30
2022-12-23T21:21:32.047Z,10.30
2022-12-23T21:24:00.667Z,10.50
2022-12-23T21:26:28.821Z,10.20
2022-12-23T21:28:59.446Z,10.20
2022-12-23T21:31:27.503Z,10.20
2022-12-23T21:33:54.852Z,10.20
2022-12-23T21:36:23.851Z,10.40
2022-12-23T21:38:51.258Z,10.40
2022-12-23T21:41:22.976Z,10.10
2022-12-23T21:43:50.119Z,10.40
2022-12-23T21:46:18.624Z,10.20
2022-12-23T21:48:45.959Z,10.30
2022-12-23T21:51:13.077Z,10.20
2022-12-23T21:53:40.203Z,10.20
2022-12-23T21:56:09.251Z,10.20
2022-12-23T21:58:36.194Z,10.20
2022-12-23T22:01:08.182Z,10.10
2022-12-23T22:03:35.594Z,10.20
2022-12-23T22:06:15.914Z,10.00
2022-12-23T22:08:42.953Z,10.50
2022-12-23T22:11:14.573Z,10.30
2022-12-23T22:13:41.713Z,10.40
2022-12-23T22:16:10.012Z,10.20
2022-12-23T22:18:37.453Z,10.10
2022-12-23T22:21:09.121Z,10.20
2022-12-23T22:23:36.970Z,10.20
2022-12-23T22:26:04.440Z,10.10
2022-12-23T22:28:32.280Z,10.00
2022-12-23T22:31:22.511Z,10.20
2022-12-23T22:33:49.516Z,10.30
2022-12-23T22:36:16.791Z,10.30
2022-12-23T22:38:43.895Z,10.40
2022-12-23T22:41:10.940Z,10.40
2022-12-23T22:43:38.179Z,10.30
2022-12-23T22:46:05.585Z,10.30
2022-12-23T22:48:33.346Z,10.30
2022-12-23T22:51:09.495Z,10.30
2022-12-23T22:53:36.981Z,10.40
2022-12-23T22:56:04.609Z,10.40
2022-12-23T22:58:31.972Z,10.40
2022-12-23T23:00:59.635Z,10.40
2022-12-23T23:03:26.887Z,10.30
2022-12-23T23:06:04.402Z,10.60
2022-12-23T23:08:31.569Z,10.70
2022-12-23T23:10:59.383Z,10.40
2022-12-23T23:13:28.235Z,10.50
2022-12-23T23:15:56.408Z,10.50
2022-12-23T23:18:23.619Z,10.70
2022-12-23T23:20:50.895Z,10.60
2022-12-23T23:23:17.813Z,10.80
2022-12-23T23:25:44.816Z,10.40
2022-12-23T23:28:11.947Z,10.60
2022-12-23T23:30:39.110Z,10.50
2022-12-23T23:33:06.903Z,10.80
2022-12-23T23:35:34.033Z,10.70
2022-12-23T23:38:00.930Z,10.80
2022-12-23T23:40:28.133Z,10.90
2022-12-23T23:42:55.035Z,10.80
2022-12-23T23:45:22.084Z,10.70
2022-12-23T23:47:48.983Z,10.80
2022-12-23T23:50:15.907Z,10.80
2022-12-23T23:52:42.880Z,11.00
2022-12-23T23:55:09.968Z,10.80
2022-12-23T23:57:36.888Z,10.80
